Time;durP1;ratioP1;P1;durP2;ratioP2;P2;SDS_P1;SDS_P2;PMS_P1;PMS_P2;Temp;Humidity;BMP_temperature;BMP_pressure;BME280_temperature;BME280_humidity;BME280_pressure;Samples;Min_cycle;Max_cycle;Signal;HPM_P1;HPM_P2
2023/08/25 00:08:07;;;;;;;12.90;5.30;;;;;;;19.88;80.93;100158.43;669163;1257;139568;-78
2023/08/25 00:23:10;;;;;;;14.50;7.00;;;;;;;19.94;80.70;100177.23;669468;1263;138836;-78
2023/08/25 00:38:13;;;;;;;16.00;7.40;;;;;;;20.00;80.28;100179.18;669151;1257;140251;-77
2023/08/25 00:53:17;;;;;;;15.70;7.00;;;;;;;19.84;80.70;100186.01;669098;1257;141253;-77
2023/08/25 01:08:22;;;;;;;17.50;6.40;;;;;;;19.55;81.48;100197.67;669002;1257;139163;-77
2023/08/25 01:31:20;;;;;;;16.30;6.90;;;;;;;19.59;82.47;100194.32;648881;1301;544782;-77
2023/08/25 01:46:24;;;;;;;12.50;6.00;;;;;;;19.26;82.78;100173.45;667255;1263;138953;-79
2023/08/25 02:01:30;;;;;;;12.80;6.90;;;;;;;19.32;83.17;100144.36;667021;1268;140563;-76
2023/08/25 02:16:34;;;;;;;13.70;7.90;;;;;;;19.35;82.91;100132.30;666971;1268;140254;-76
2023/08/25 02:31:38;;;;;;;13.80;6.50;;;;;;;19.19;82.85;100133.39;666302;1271;140185;-76
2023/08/25 02:46:42;;;;;;;15.30;7.10;;;;;;;19.05;83.50;100136.59;666819;1273;140250;-77
2023/08/25 03:01:45;;;;;;;13.20;7.70;;;;;;;19.06;83.49;100124.08;667221;1268;138949;-77
2023/08/25 03:16:49;;;;;;;15.50;8.50;;;;;;;19.05;83.92;100111.40;667704;1268;139994;-76
2023/08/25 03:31:52;;;;;;;14.40;7.50;;;;;;;18.96;84.10;100081.52;668306;1269;139960;-78
2023/08/25 03:46:56;;;;;;;15.90;7.80;;;;;;;18.98;84.57;100068.61;667948;1267;140091;-78
2023/08/25 04:02:03;;;;;;;12.60;6.50;;;;;;;18.87;84.66;100053.98;667769;1268;140246;-78
2023/08/25 04:17:07;;;;;;;17.80;6.50;;;;;;;18.85;86.22;100059.66;667008;1273;139920;-78
2023/08/25 04:32:10;;;;;;;13.10;7.10;;;;;;;19.37;84.61;100052.73;667601;1268;140749;-78
2023/08/25 04:47:16;;;;;;;10.80;6.50;;;;;;;20.04;83.56;100047.52;667424;1268;140636;-76
2023/08/25 05:02:20;;;;;;;19.90;7.30;;;;;;;20.65;82.33;100052.56;666842;1268;141211;-76
2023/08/25 05:17:23;;;;;;;13.40;6.40;;;;;;;21.19;81.70;100044.47;667403;1268;141622;-76
2023/08/25 05:32:27;;;;;;;37.70;7.60;;;;;;;21.71;80.21;100026.10;667482;1267;140257;-76
2023/08/25 05:47:49;;;;;;;25.50;9.30;;;;;;;22.01;79.56;100005.40;666494;1269;140033;-77
2023/08/25 06:02:54;;;;;;;12.00;5.70;;;;;;;22.64;78.79;99968.91;665991;1268;140293;-76
2023/08/25 06:17:58;;;;;;;14.50;5.20;;;;;;;23.39;75.77;99948.59;666253;1268;140362;-76
2023/08/25 06:33:02;;;;;;;19.40;11.40;;;;;;;23.87;73.22;99941.23;666182;1277;139196;-77
2023/08/25 06:48:06;;;;;;;26.00;11.20;;;;;;;24.49;71.28;99924.13;666482;1269;140306;-77
2023/08/25 07:03:09;;;;;;;21.50;8.80;;;;;;;25.16;70.05;99913.58;666704;1275;139630;-77
2023/08/25 07:18:13;;;;;;;15.90;6.30;;;;;;;25.77;67.63;99907.38;667664;1270;139687;-78
2023/08/25 07:33:17;;;;;;;7.20;4.00;;;;;;;26.11;66.37;99916.28;666717;1270;139597;-76
2023/08/25 07:48:21;;;;;;;4.60;3.60;;;;;;;26.22;65.58;99913.05;667114;1268;140309;-73
2023/08/25 08:03:25;;;;;;;82.30;48.30;;;;;;;26.21;65.50;99893.20;665992;1271;138971;-76
2023/08/25 08:18:28;;;;;;;47.70;8.40;;;;;;;26.22;65.19;99890.90;665742;1267;139279;-74
2023/08/25 08:33:32;;;;;;;42.60;16.50;;;;;;;26.55;64.93;99887.39;666412;1269;139694;-74
2023/08/25 08:48:36;;;;;;;12.30;6.90;;;;;;;26.59;64.56;99888.36;666691;1268;138409;-74
2023/08/25 09:03:43;;;;;;;12.50;8.20;;;;;;;27.23;63.57;99886.19;665590;1271;138366;-76
2023/08/25 09:18:47;;;;;;;9.30;3.80;;;;;;;28.26;61.59;99884.50;666208;1267;138309;-76
2023/08/25 09:33:57;;;;;;;7.90;3.30;;;;;;;29.63;58.50;99873.92;665371;1270;137753;-76
2023/08/25 09:49:05;;;;;;;10.50;4.30;;;;;;;29.43;58.74;99862.79;666732;1267;138694;-75
2023/08/25 10:04:10;;;;;;;5.50;3.70;;;;;;;29.14;59.23;99842.27;665748;1280;138653;-76
2023/08/25 10:19:15;;;;;;;9.50;4.40;;;;;;;29.32;59.10;99823.33;668728;1269;141719;-75
2023/08/25 10:34:35;;;;;;;7.90;4.50;;;;;;;28.85;58.69;99826.05;666517;1269;138676;-74
2023/08/25 10:49:39;;;;;;;11.10;4.10;;;;;;;28.77;58.81;99836.52;666063;1269;138304;-75
2023/08/25 11:04:45;;;;;;;9.90;4.30;;;;;;;28.56;58.11;99851.34;666396;1270;138659;-74
2023/08/25 11:19:50;;;;;;;9.90;4.90;;;;;;;28.82;57.83;99856.98;666659;1266;137995;-76
2023/08/25 11:34:54;;;;;;;8.20;4.80;;;;;;;29.52;57.61;99854.80;666255;1269;141299;-76
2023/08/25 11:50:00;;;;;;;11.00;4.80;;;;;;;30.91;55.50;99846.06;667057;1270;138954;-76
2023/08/25 12:05:04;;;;;;;7.60;5.10;;;;;;;30.83;55.34;99850.47;666629;1270;140068;-76
2023/08/25 12:20:16;;;;;;;6.50;4.70;;;;;;;31.30;55.32;99860.60;667322;1278;138052;-77
2023/08/25 12:35:22;;;;;;;10.00;4.60;;;;;;;31.86;53.91;99840.65;667254;1267;138281;-77
2023/08/25 12:50:27;;;;;;;10.20;5.00;;;;;;;31.70;54.80;99814.58;666860;1264;138485;-75
2023/08/25 13:05:31;;;;;;;11.30;5.60;;;;;;;32.67;54.71;99796.66;667415;1262;139778;-76
2023/08/25 13:20:35;;;;;;;8.20;5.60;;;;;;;33.02;54.99;99786.14;667251;1267;138326;-77
2023/08/25 13:35:39;;;;;;;8.00;5.20;;;;;;;33.25;55.23;99784.34;667572;1264;172913;-76
2023/08/25 13:50:42;;;;;;;8.50;5.50;;;;;;;33.52;55.90;99771.09;667032;1267;138268;-76
2023/08/25 14:05:46;;;;;;;13.00;5.20;;;;;;;33.32;56.14;99772.25;667024;1268;138010;-76
2023/08/25 14:20:50;;;;;;;9.60;5.70;;;;;;;32.77;57.27;99764.91;666752;1270;138499;-76
2023/08/25 14:35:54;;;;;;;11.90;5.20;;;;;;;32.74;57.84;99760.98;666858;1264;138941;-75
2023/08/25 14:51:01;;;;;;;8.80;6.00;;;;;;;33.23;56.85;99756.11;666454;1268;141999;-75
2023/08/25 15:06:04;;;;;;;6.90;5.20;;;;;;;32.77;57.33;99754.31;667127;1264;138237;-75
2023/08/25 15:21:08;;;;;;;6.70;5.50;;;;;;;32.13;58.54;99748.69;667007;1267;138543;-76
2023/08/25 15:36:12;;;;;;;9.00;5.30;;;;;;;31.58;59.89;99744.29;668067;1267;138823;-77
2023/08/25 15:51:15;;;;;;;9.80;6.00;;;;;;;31.44;60.69;99747.59;673073;1271;138551;-76
2023/08/25 16:06:19;;;;;;;10.00;6.30;;;;;;;31.26;60.84;99749.45;667094;1266;138222;-75
2023/08/25 16:21:24;;;;;;;15.00;6.70;;;;;;;31.28;61.29;99746.67;666852;1264;138412;-76
2023/08/25 16:36:28;;;;;;;9.70;6.50;;;;;;;31.06;61.53;99731.11;666514;1268;141642;-75
2023/08/25 16:51:31;;;;;;;12.00;7.20;;;;;;;30.55;62.55;99715.61;667444;1268;139660;-76
2023/08/25 17:06:35;;;;;;;14.90;7.90;;;;;;;30.09;63.67;99719.20;670724;1264;140604;-75
2023/08/25 17:21:39;;;;;;;11.80;6.70;;;;;;;29.67;64.98;99718.51;666891;1268;138838;-76
2023/08/25 17:36:43;;;;;;;14.10;8.10;;;;;;;29.19;66.02;99734.87;667440;1268;139255;-77
2023/08/25 17:51:48;;;;;;;18.20;8.60;;;;;;;28.69;67.69;99730.43;666391;1268;139469;-76
2023/08/25 18:06:52;;;;;;;15.40;9.40;;;;;;;28.15;69.51;99711.21;666853;1264;138171;-76
2023/08/25 18:21:56;;;;;;;24.10;10.40;;;;;;;27.84;71.12;99716.48;666836;1267;138581;-77
2023/08/25 18:36:59;;;;;;;10.30;8.60;;;;;;;27.57;72.60;99729.67;666625;1267;138919;-77
2023/08/25 18:52:03;;;;;;;13.80;9.10;;;;;;;27.33;73.65;99727.11;666777;1267;138990;-77
2023/08/25 19:07:07;;;;;;;16.50;10.20;;;;;;;27.03;75.03;99717.95;666911;1268;139573;-77
2023/08/25 19:22:10;;;;;;;15.50;10.60;;;;;;;26.95;75.84;99716.98;666689;1269;138894;-76
2023/08/25 19:37:14;;;;;;;17.90;10.60;;;;;;;26.53;78.62;99701.23;666382;1270;139353;-76
2023/08/25 19:52:18;;;;;;;20.00;9.90;;;;;;;26.50;80.01;99697.27;666646;1268;140290;-76
2023/08/25 20:07:23;;;;;;;17.20;11.10;;;;;;;26.22;81.07;99683.84;667329;1276;138723;-75
2023/08/25 20:22:27;;;;;;;15.20;11.50;;;;;;;26.24;82.29;99700.62;667138;1269;140844;-76
2023/08/25 20:37:31;;;;;;;18.00;11.00;;;;;;;26.20;81.22;99717.73;666900;1280;139357;-75
2023/08/25 20:52:35;;;;;;;13.40;9.60;;;;;;;26.37;80.06;99727.69;667647;1271;139278;-77
2023/08/25 21:07:38;;;;;;;15.10;10.80;;;;;;;26.28;80.07;99721.79;671752;1268;140361;-77
2023/08/25 21:22:42;;;;;;;13.40;10.10;;;;;;;26.04;80.88;99721.57;676794;1264;138616;-77
2023/08/25 21:37:47;;;;;;;19.10;12.80;;;;;;;25.80;82.32;99718.92;667284;1264;140925;-76
2023/08/25 21:52:50;;;;;;;20.00;12.50;;;;;;;25.83;82.07;99702.67;667493;1278;141542;-77
2023/08/25 22:07:55;;;;;;;17.00;11.10;;;;;;;25.64;83.19;99706.41;667370;1278;140124;-77
2023/08/25 22:22:58;;;;;;;23.10;15.10;;;;;;;25.63;83.35;99695.27;666846;1266;138966;-77
2023/08/25 22:38:02;;;;;;;18.90;10.70;;;;;;;25.63;83.62;99676.17;667071;1279;138762;-76
2023/08/25 22:53:05;;;;;;;17.80;11.30;;;;;;;25.72;83.34;99670.21;666703;1269;140980;-77
2023/08/25 23:08:09;;;;;;;19.50;12.10;;;;;;;25.47;85.09;99665.55;667269;1268;141720;-77
2023/08/25 23:23:12;;;;;;;20.40;13.30;;;;;;;25.49;86.05;99643.34;667232;1279;139312;-76
2023/08/25 23:38:16;;;;;;;20.50;14.70;;;;;;;25.61;88.26;99684.52;667143;1265;139835;-76
2023/08/25 23:53:19;;;;;;;26.20;15.70;;;;;;;25.47;91.87;99666.02;666456;1268;139554;-77
